Dakin Peak, Santa Catalina Island Weather observations

Data are for 10 minute period ending at time listed.
 Day   Time   Solar   Ave.   Ave.  Ave.  Vector    Max.   Stn.    Total
  of    of     Rad.   Air    Rel.  Wind   Wind     Wind   Baro.  Precip.
Year   Day            Temp.  Hum.  Speed  Dir.     Gust   Pres.         
2014   (PST)   W/m2    F      %     mph   deg.      mph    mb.     in.  
------------------------------------------------------------------------
 210   20:20    0.0    76   36.3     8    269.7    10.8    999.0   0.00  
 210   20:30    0.0    76   36.4     7    260.6     9.0    999.0   0.00  
 210   20:40    0.0    76   34.9     8    260.0     9.6    999.0   0.00  
 210   20:50    0.0    76   33.7     5    256.4     7.8    999.0   0.00  
 210   21:00    0.0    75   33.3     6    267.6     7.8    999.0   0.00  
 210   21:10    0.0    75   33.8     7    275.4     9.0    999.0   0.00  
 210   21:20    0.0    74   35.4     7    275.2     9.6    999.0   0.00  
 210   21:30    0.0    72   37.6     7    269.3     9.0    999.0   0.00  
 210   21:40    0.0    72   39.0     8    261.0    10.2    999.0   0.00  
 210   21:50    0.0    73   38.5     9    261.5    10.8    999.0   0.00  
 210   22:00    0.0    75   36.5     9    281.1    10.8    999.0   0.00  
 210   22:10    0.0    74   37.2     8    273.7     9.6    999.0   0.00  
 210   22:20    0.0    73   38.1     8    272.1     8.4    999.0   0.00  
 210   22:30    0.0    73   37.1     7    274.8     8.4    999.0   0.00  
 210   22:40    0.0    75   35.3     7    289.5     8.4    999.0   0.00  
 210   22:50    0.0    75   35.2     5    281.9     6.0    999.0   0.00  
 210   23:00    0.0    75   35.6     6    285.1     8.4    999.0   0.00  
 210   23:10    0.0    75   35.5     6    295.5     7.8    999.0   0.00  
 210   23:20    0.0    75   35.9     7    288.6     7.8    999.0   0.00  
 210   23:30    0.0    74   37.3     7    272.4     8.4    999.0   0.00  
 210   23:40    0.0    73   38.4     8    276.2     8.4    999.0   0.00  
 210   23:50    0.0    74   38.2     6    274.3     7.2    999.0   0.00  
 211    0:00    0.0    74   38.0     6    279.4     6.6    999.0   0.00  
 211    0:10    0.0    74   38.7     6    288.4     7.2    999.0   0.00  
 211    0:20    0.0    74   39.4     7    284.5     8.4    999.0   0.00  
 211    0:30    0.0    75   40.2     7    295.1     9.0    999.0   0.00  
 211    0:40    0.0    74   41.2     8    281.0    10.2    999.0   0.00  
 211    0:50    0.0    74   42.4     8    280.5    10.2    999.0   0.00  
 211    1:00    0.0    74   42.8     7    283.9     8.4    999.0   0.00  
 211    1:10    0.0    74   42.9     6    283.0     7.2    999.0   0.00  
 211    1:20    0.0    74   43.4     5    272.6     7.2    999.0   0.00  
 211    1:30    0.0    76   40.3     7    281.6     8.4    999.0   0.00  
 211    1:40    0.0    75   41.2     6    279.6     7.2    999.0   0.00  
 211    1:50    0.0    75   41.9     6    285.5     7.8    999.0   0.00  
 211    2:00    0.0    74   42.6     6    283.9     7.8    999.0   0.00  
 211    2:10    0.0    74   42.6     6    278.5     8.4    999.0   0.00  
 211    2:20    0.0    75   42.4     5    273.1     6.6    999.0   0.00  
 211    2:30    0.0    74   42.7     4    239.6     6.6    999.0   0.00  
 211    2:40    0.0    74   42.8     5    213.4     7.8    999.0   0.00  
 211    2:50    0.0    72   48.5     8    217.8     9.6    999.0   0.00  
 211    3:00    0.0    70   56.3     6    225.1     8.4    999.0   0.00  
 211    3:10    0.0    71   50.3     3    238.8     6.6    999.0   0.00  
 211    3:20    0.0    70   51.8     6    270.1     6.6    999.0   0.00  
 211    3:30    0.0    72   46.5     4    252.8     7.2    999.0   0.00  
 211    3:40    0.0    72   44.8     4    269.0     4.8    999.0   0.00  
 211    3:50    0.0    73   44.1     3    272.0     4.2    999.0   0.00  
 211    4:00    0.0    73   44.6     2    286.0     3.6    999.0   0.00  
 211    4:10    0.0    72   45.4     3    309.6     5.4    999.0   0.00  
 211    4:20    0.0    73   45.4     2    329.6     5.4    999.0   0.00  
 211    4:30    0.0    72   46.6     6    328.8     7.8    999.0   0.00  
 211    4:40    0.0    71   49.0     4    310.7     5.4    999.0   0.00  
 211    4:50    0.0    71   48.0     3    299.4     5.4    999.0   0.00  
 211    5:00    1.0    72   47.1     4    323.9     4.8    999.0   0.00  
 211    5:10    6.0    71   47.8     3     26.0     4.8    999.0   0.00  
 211    5:20   13.0    71   49.7     3     14.7     4.8    999.0   0.00  
 211    5:30   27.0    71   50.6     3     27.8     4.2    999.0   0.00  
 211    5:40   41.0    71   51.6     4     78.5     6.0    999.0   0.00  
 211    5:50   65.0    73   49.2     2     63.0     3.0    999.0   0.00  
 211    6:00   90.0    73   51.5     3     99.5     4.8    999.0   0.00  
 211    6:10  116.0    73   55.0     2    210.9     3.6    999.0   0.00  
 211    6:20  142.0    73   51.1     3    224.1     4.2    999.0   0.00  
 211    6:30  164.0    75   52.0     2    219.5     4.2    999.0   0.00  
 211    6:40  191.0    76   49.6     2    296.2     3.0    999.0   0.00  
 211    6:50  219.0    77   49.2     2    263.4     3.6    999.0   0.00  
 211    7:00  245.0    77   59.2     3     96.6     6.0    999.0   0.00  
 211    7:10  268.0    77   63.6     2    125.8     4.8    999.0   0.00  
 211    7:20  292.0    79   54.4     2    258.8     6.0    999.0   0.00  
 211    7:30  320.0    79   61.6     3     81.3     5.4    999.0   0.00  
 211    7:40  347.0    80   57.4     3     20.0     4.8    999.0   0.00  
 211    7:50  373.0    80   57.7     3     65.9     5.4    999.0   0.00  
 211    8:00  398.0    80   59.0     3     91.8     6.0    999.0   0.00  
 211    8:10  422.0    79   66.0     5     96.3     7.8    999.0   0.00  
 211    8:20  446.0    78   67.2     6     98.4     9.0    999.0   0.00  
 211    8:30  470.0    78   68.4     6    102.0     9.0    999.0   0.00  
 211    8:40  493.0    78   67.9     6    102.9     9.0    999.0   0.00  
 211    8:50  515.0    78   68.7     7    102.2     9.0    999.0   0.00  
 211    9:00  537.0    78   68.6     6    102.3     9.0    999.0   0.00  
 211    9:10  558.0    79   67.5     7    107.3     9.6    999.0   0.00  
 211    9:20  578.0    78   67.8     6    107.1     9.0    999.0   0.00  
 211    9:30  597.0    79   67.2     6    103.3     9.6    999.0   0.00  
 211    9:40  616.0    79   66.8     6    105.5     7.8    999.0   0.00  
 211    9:50  633.0    78   68.1     6    106.0     8.4    999.0   0.00  
 211   10:00  649.0    79   67.0     6    103.8     9.0    999.0   0.00  
 211   10:10  665.0    79   67.1     6    112.4     9.0    999.0   0.00  
 211   10:20  681.0    79   66.6     6    110.3     9.0    999.0   0.00  
 211   10:30  673.0    79   66.8     7    110.6    10.2    999.0   0.00  
 211   10:40  699.0    79   67.3     8    104.1    11.9    999.0   0.00  
 211   10:50  715.0    77   70.0     8    102.7    11.3    999.0   0.00  
 211   11:00  727.0    79   67.9     7    100.9    10.2    999.0   0.00  
 211   11:10  734.0    79   67.9     7    100.7    10.2    999.0   0.00  
 211   11:20  728.0    80   65.3     5    105.6     8.4    999.0   0.00  
 211   11:30  701.0    79   66.9     6     97.6     9.0    999.0   0.00  
 211   11:40  618.0    81   64.1     6     96.7     8.4    999.0   0.00  
 211   11:50  664.0    80   65.8     6    107.9    10.2    999.0   0.00  
 211   12:00  693.0    80   64.7     6    108.1     8.4    999.0   0.00  
 211   12:10  651.0    80   64.7     6    108.5     9.0    999.0   0.00  
 211   12:20  686.0    83   61.1     3     93.5     6.0    999.0   0.00  
 211   12:30  669.0    85   56.8     4    114.8     7.2    999.0   0.00  
 211   12:40  673.0    85   52.1     4    253.5     7.8    999.0   0.00  
 211   12:50  679.0    88   46.4     4    264.6     9.6    999.0   0.00  
 211   13:00  678.0    87   54.2     3     94.1     5.4    999.0   0.00  
 211   13:10  635.0    85   57.8     5     91.4     6.6    999.0   0.00  
 211   13:20  681.0    84   60.1     4     98.9     6.0    999.0   0.00  
 211   13:30  642.0    86   57.0     4    103.1     9.0    999.0   0.00  
 211   13:40  677.0    92   40.0     6    239.8    10.8    999.0   0.00  
 211   13:50  534.0    91   44.2     4    263.3     7.2    999.0   0.00  
 211   14:00  539.0    90   45.0     5    310.3     9.0    999.0   0.00  
 211   14:10  543.0    89   47.7     4    220.7     6.6    999.0   0.00  
 211   14:20  570.0    91   40.2     6    293.4    10.8    999.0   0.00  
 211   14:30  559.0    91   40.5     6    274.3    11.9    999.0   0.00  
 211   14:40  523.0    91   35.7     8    263.4    11.3    999.0   0.00  
 211   14:50  562.0    92   34.3     9    261.5    13.1    999.0   0.00  
 211   15:00  508.0    93   32.1    10    261.1    14.3    999.0   0.00  
 211   15:10  486.0    92   33.3     9    249.8    13.1    999.0   0.00  
 211   15:20  501.0    91   34.5    10    250.8    13.7    999.0   0.00  
 211   15:30  474.0    92   32.8    13    273.3    20.9    999.0   0.00  
 211   15:40  410.0    91   33.4    14    277.4    20.9    999.0   0.00  
 211   15:50  398.0    90   35.1    13    280.8    19.1    999.0   0.00  
 211   16:00  392.0    90   35.3    14    279.4    19.7    999.0   0.00  
 211   16:10  377.0    89   34.7    14    284.7    19.1    999.0   0.00  
 211   16:20  335.0    89   35.3    14    281.0    19.7    999.0   0.00  
 211   16:30  337.0    88   35.7    14    279.2    20.3    999.0   0.00  
 211   16:40  319.0    88   35.5    16    284.7    22.7    999.0   0.00  
 211   16:50  296.0    88   34.6    17    284.7    22.7    999.0   0.00  
 211   17:00  268.0    87   35.4    17    284.8    23.9    999.0   0.00  
 211   17:10  240.0    86   36.8    17    280.1    22.1    999.0   0.00  
 211   17:20  205.0    86   37.2    17    278.2    23.9    999.0   0.00  
 211   17:30  184.0    85   36.7    17    279.0    25.0    999.0   0.00  
 211   17:40  162.0    85   36.0    18    277.0    27.4    999.0   0.00  
 211   17:50  138.0    85   35.7    18    278.3    26.2    999.0   0.00  
 211   18:00   62.0    84   37.0    18    279.5    24.5    999.0   0.00  
 211   18:10   38.0    83   38.4    15    278.5    22.1    999.0   0.00  
 211   18:20   31.0    83   38.8    14    278.4    19.7    999.0   0.00  
 211   18:30   24.0    81   43.0    13    272.0    17.3    999.0   0.00  
 211   18:40   18.0    79   45.9    12    264.5    16.7    999.0   0.00  
 211   18:50    8.0    79   46.1    12    266.4    17.9    999.0   0.00  
 211   19:00    3.0    79   46.2    11    266.1    15.5    999.0   0.00  
 211   19:10    0.0    78   47.2    11    268.5    17.3    999.0   0.00  
 211   19:20    0.0    78   45.9    11    272.2    16.7    999.0   0.00  
 211   19:30    0.0    77   45.0     9    263.5    12.5    999.0   0.00  
 211   19:40    0.0    76   44.0     8    268.3    11.9    999.0   0.00  
 211   19:50    0.0    76   43.0    10    269.7    11.9    999.0   0.00  
 211   20:00    0.0    76   44.0     9    272.6    11.9    999.0   0.00  
 211   20:10    0.0    75   43.9    11    272.2    12.5    999.0   0.00  

Return to Dakin Peak graphs page.


Western Regional Climate Center,wrcc@dri.edu